createdAt,value
2023-02-22T00:01:50.974Z,101094.75
2023-02-22T00:04:21.040Z,101092.00
2023-02-22T00:06:48.875Z,101096.28
2023-02-22T00:09:20.404Z,101094.88
2023-02-22T00:11:48.568Z,101091.63
2023-02-22T00:14:15.044Z,101082.81
2023-02-22T00:16:41.525Z,101081.03
2023-02-22T00:19:08.618Z,101088.03
2023-02-22T00:21:34.993Z,101085.44
2023-02-22T00:24:16.909Z,101082.66
2023-02-22T00:26:43.313Z,101075.81
2023-02-22T00:29:09.659Z,101071.56
2023-02-22T00:31:39.391Z,101078.28
2023-02-22T00:34:05.853Z,101073.47
2023-02-22T00:36:32.288Z,101065.50
2023-02-22T00:38:58.649Z,101069.63
2023-02-22T00:41:25.047Z,101066.34
2023-02-22T00:43:51.404Z,101070.56
2023-02-22T00:46:17.821Z,101071.56
2023-02-22T00:48:44.472Z,101057.00
2023-02-22T00:51:10.925Z,101060.56
2023-02-22T00:53:37.395Z,101060.00
2023-02-22T00:56:04.032Z,101058.06
2023-02-22T00:58:30.459Z,101060.00
2023-02-22T01:00:56.839Z,101057.25
2023-02-22T01:03:23.265Z,101053.09
2023-02-22T01:05:49.939Z,101047.09
2023-02-22T01:08:17.444Z,101052.72
2023-02-22T01:10:44.106Z,101049.00
2023-02-22T01:13:12.484Z,101048.88
2023-02-22T01:15:42.063Z,101038.56
2023-02-22T01:18:09.511Z,101038.38
2023-02-22T01:20:36.842Z,101031.38
2023-02-22T01:23:06.655Z,101028.34
2023-02-22T01:25:34.264Z,101023.13
2023-02-22T01:28:01.989Z,101026.84
2023-02-22T01:30:30.967Z,101027.41
2023-02-22T01:32:57.987Z,101025.75
2023-02-22T01:35:28.333Z,101026.31
2023-02-22T01:37:55.369Z,101024.66
2023-02-22T01:40:32.034Z,101020.94
2023-02-22T01:43:02.909Z,101015.19
2023-02-22T01:45:34.946Z,101011.06
2023-02-22T01:48:04.261Z,101015.03
2023-02-22T01:50:34.283Z,101013.50
2023-02-22T01:53:02.090Z,101007.31
2023-02-22T01:55:28.936Z,101013.50
2023-02-22T01:57:55.353Z,101006.50
2023-02-22T02:00:24.285Z,100994.84
2023-02-22T02:03:02.643Z,100998.69
2023-02-22T02:05:31.401Z,101002.66
2023-02-22T02:07:59.419Z,100999.63
2023-02-22T02:10:26.580Z,100999.91
2023-02-22T02:12:53.872Z,101003.22
2023-02-22T02:15:31.052Z,101000.06
2023-02-22T02:18:10.346Z,100994.97
2023-02-22T02:21:07.456Z,100982.09
2023-02-22T02:24:05.819Z,100980.81
2023-02-22T02:26:44.702Z,100985.63
2023-02-22T02:29:47.219Z,100980.41
2023-02-22T02:32:36.133Z,100976.72
2023-02-22T02:35:11.634Z,100974.19
2023-02-22T02:38:12.824Z,100982.88
2023-02-22T02:40:47.311Z,100970.81
2023-02-22T02:43:39.639Z,100976.97
2023-02-22T02:46:25.239Z,100969.03
2023-02-22T02:48:56.619Z,100964.91
2023-02-22T02:51:27.931Z,100959.97
2023-02-22T02:53:55.757Z,100960.94
2023-02-22T02:56:23.391Z,100961.63
2023-02-22T02:58:52.776Z,100959.03
2023-02-22T03:01:24.944Z,100963.97
2023-02-22T03:04:05.817Z,100954.47
2023-02-22T03:06:50.969Z,100947.09
2023-02-22T03:09:35.738Z,100952.88
2023-02-22T03:12:15.035Z,100947.53
2023-02-22T03:14:55.774Z,100942.44
2023-02-22T03:17:32.292Z,100945.88
2023-02-22T03:20:06.218Z,100946.19
2023-02-22T03:22:48.073Z,100944.69
2023-02-22T03:25:20.881Z,100942.06
2023-02-22T03:27:54.277Z,100936.97
2023-02-22T03:30:37.516Z,100945.09
2023-02-22T03:33:09.024Z,100936.59
2023-02-22T03:35:44.248Z,100944.94
2023-02-22T03:38:11.940Z,100941.38
2023-02-22T03:40:44.030Z,100943.59
2023-02-22T03:43:15.971Z,100944.00
2023-02-22T03:45:44.725Z,100935.59
2023-02-22T03:48:20.622Z,100939.19
2023-02-22T03:50:49.914Z,100933.69
2023-02-22T03:53:18.589Z,100938.38
2023-02-22T03:55:51.531Z,100939.06
2023-02-22T03:58:20.586Z,100946.47
2023-02-22T04:00:47.791Z,100943.84
2023-02-22T04:03:14.181Z,100950.00
2023-02-22T04:05:40.522Z,100947.41
2023-02-22T04:08:06.954Z,100946.72
2023-02-22T04:10:33.518Z,100951.53
2023-02-22T04:12:59.952Z,100936.97
2023-02-22T04:15:26.361Z,100935.72
2023-02-22T04:17:52.771Z,100937.78
2023-02-22T04:20:19.896Z,100942.59
2023-02-22T04:22:47.214Z,100944.22
2023-02-22T04:25:14.123Z,100947.25
2023-02-22T04:27:40.486Z,100954.13
2023-02-22T04:30:07.299Z,100949.59
2023-02-22T04:32:33.684Z,100939.16
2023-02-22T04:35:00.079Z,100935.13
2023-02-22T04:37:26.506Z,100930.75
2023-02-22T04:39:52.931Z,100932.81
2023-02-22T04:42:19.345Z,100926.78
2023-02-22T04:44:45.721Z,100917.69
2023-02-22T04:47:12.196Z,100930.91
2023-02-22T04:49:39.153Z,100925.66
2023-02-22T04:52:05.611Z,100911.78
2023-02-22T04:54:32.077Z,100911.66
2023-02-22T04:56:58.394Z,100910.00
2023-02-22T04:59:24.869Z,100907.25
2023-02-22T05:01:51.297Z,100903.13
2023-02-22T05:04:17.934Z,100897.63
2023-02-22T05:06:44.295Z,100904.75
2023-02-22T05:09:10.628Z,100897.63
2023-02-22T05:11:37.009Z,100891.59
2023-02-22T05:14:03.395Z,100896.81
2023-02-22T05:16:29.846Z,100887.78
2023-02-22T05:18:56.316Z,100883.13
2023-02-22T05:21:22.676Z,100889.72
2023-02-22T05:23:49.147Z,100887.38
2023-02-22T05:26:15.568Z,100881.06
2023-02-22T05:28:41.925Z,100879.44
2023-02-22T05:31:08.947Z,100879.81
2023-02-22T05:33:35.475Z,100875.75
2023-02-22T05:36:02.149Z,100874.91
2023-02-22T05:38:28.829Z,100875.44
2023-02-22T05:40:55.278Z,100871.88
2023-02-22T05:43:21.660Z,100867.75
2023-02-22T05:45:48.008Z,100874.09
2023-02-22T05:48:14.387Z,100867.09
2023-02-22T05:50:40.736Z,100865.06
2023-02-22T05:53:07.138Z,100867.91
2023-02-22T05:55:33.455Z,100867.09
2023-02-22T05:58:01.618Z,100867.78
2023-02-22T06:00:30.755Z,100865.06
2023-02-22T06:03:06.998Z,100860.78
2023-02-22T06:05:33.488Z,100854.47
2023-02-22T06:08:00.014Z,100864.38
2023-02-22T06:10:27.290Z,100864.38
2023-02-22T06:12:55.145Z,100854.63
2023-02-22T06:15:23.280Z,100859.03
2023-02-22T06:17:50.650Z,100858.50
2023-02-22T06:20:20.532Z,100857.50
2023-02-22T06:22:48.103Z,100854.09
2023-02-22T06:25:16.454Z,100859.59
2023-02-22T06:27:42.816Z,100857.97
2023-02-22T06:30:13.343Z,100853.44
2023-02-22T06:32:39.971Z,100853.28
2023-02-22T06:35:06.823Z,100855.06
2023-02-22T06:37:33.468Z,100846.72
2023-02-22T06:40:04.842Z,100852.75
2023-02-22T06:42:31.596Z,100857.25
2023-02-22T06:44:58.039Z,100854.81
2023-02-22T06:47:24.403Z,100856.59
2023-02-22T06:49:58.344Z,100858.50
2023-02-22T06:52:25.381Z,100860.44
2023-02-22T06:54:51.879Z,100859.19
2023-02-22T06:57:18.616Z,100853.56
2023-02-22T06:59:45.396Z,100846.81
2023-02-22T07:02:12.632Z,100850.56
2023-02-22T07:04:41.711Z,100851.09
2023-02-22T07:07:09.660Z,100849.88
2023-02-22T07:09:36.071Z,100848.38
2023-02-22T07:12:02.428Z,100850.00
2023-02-22T07:14:28.824Z,100847.41
2023-02-22T07:16:55.216Z,100851.66
2023-02-22T07:19:21.555Z,100841.50
2023-02-22T07:21:48.048Z,100843.38
2023-02-22T07:24:14.462Z,100839.50
2023-02-22T07:26:42.250Z,100835.28
2023-02-22T07:29:08.697Z,100843.88
2023-02-22T07:31:36.654Z,100834.25
2023-02-22T07:34:03.045Z,100838.78
2023-02-22T07:36:29.473Z,100829.25
2023-02-22T07:38:55.867Z,100829.03
2023-02-22T07:41:23.026Z,100830.50
2023-02-22T07:43:49.402Z,100834.84
2023-02-22T07:46:15.782Z,100833.28
2023-02-22T07:48:42.132Z,100825.16
2023-02-22T07:51:09.796Z,100823.41
2023-02-22T07:53:36.437Z,100823.53
2023-02-22T07:56:05.369Z,100823.16
2023-02-22T07:58:32.645Z,100813.66
2023-02-22T08:01:02.068Z,100824.25
2023-02-22T08:03:36.447Z,100815.44
2023-02-22T08:06:04.681Z,100816.75
2023-02-22T08:08:31.100Z,100812.63
2023-02-22T08:10:58.128Z,100810.22
2023-02-22T08:13:24.568Z,100809.47
2023-02-22T08:15:53.541Z,100807.88
2023-02-22T08:18:21.892Z,100806.06
2023-02-22T08:20:49.962Z,100802.25
2023-02-22T08:23:17.830Z,100797.63
2023-02-22T08:25:44.615Z,100790.75
2023-02-22T08:28:13.760Z,100795.03
2023-02-22T08:30:42.868Z,100796.97
2023-02-22T08:33:10.921Z,100794.22
2023-02-22T08:35:37.489Z,100787.53
2023-02-22T08:38:06.557Z,100791.34
2023-02-22T08:40:36.183Z,100791.91
2023-02-22T08:43:04.376Z,100790.38
2023-02-22T08:45:30.951Z,100793.50
2023-02-22T08:47:58.320Z,100783.63
2023-02-22T08:50:27.577Z,100788.47
2023-02-22T08:52:56.088Z,100785.56
2023-02-22T08:55:30.107Z,100784.25
2023-02-22T08:57:56.446Z,100783.84
2023-02-22T09:00:26.007Z,100773.44
2023-02-22T09:02:53.085Z,100782.25
2023-02-22T09:05:20.167Z,100784.38
2023-02-22T09:07:47.882Z,100786.06
2023-02-22T09:10:17.027Z,100780.31
2023-02-22T09:12:43.742Z,100783.56
2023-02-22T09:15:11.710Z,100784.03
2023-02-22T09:17:38.641Z,100780.47
2023-02-22T09:20:07.830Z,100774.75
2023-02-22T09:22:34.649Z,100768.41
2023-02-22T09:25:11.408Z,100769.03
2023-02-22T09:27:43.554Z,100766.66
2023-02-22T09:30:23.750Z,100773.69
2023-02-22T09:32:53.131Z,100776.88
2023-02-22T09:35:20.406Z,100775.50
2023-02-22T09:37:46.854Z,100771.94
2023-02-22T09:40:25.269Z,100777.63
2023-02-22T09:42:56.434Z,100772.00
2023-02-22T09:45:28.289Z,100773.16
2023-02-22T09:48:15.159Z,100777.13
2023-02-22T09:50:49.064Z,100776.38
2023-02-22T09:53:17.773Z,100771.84
2023-02-22T09:55:49.766Z,100774.66
2023-02-22T09:58:25.229Z,100778.84
2023-02-22T10:00:59.575Z,100776.50
2023-02-22T10:03:50.663Z,100775.03
2023-02-22T10:06:21.402Z,100769.28
2023-02-22T10:08:50.048Z,100777.97
2023-02-22T10:11:37.633Z,100770.06
2023-02-22T10:14:27.861Z,100765.47
2023-02-22T10:17:17.425Z,100764.28
2023-02-22T10:19:43.806Z,100747.00
2023-02-22T10:22:44.271Z,100749.03
2023-02-22T10:25:17.856Z,100745.25
2023-02-22T10:28:03.546Z,100744.25
2023-02-22T10:30:34.329Z,100737.84
2023-02-22T10:33:22.098Z,100741.19
2023-02-22T10:35:51.509Z,100747.91
2023-02-22T10:38:20.242Z,100738.78
2023-02-22T10:40:54.895Z,100728.34
2023-02-22T10:43:21.737Z,100732.84
2023-02-22T10:45:48.285Z,100730.31
2023-02-22T10:48:18.438Z,100725.97
2023-02-22T10:50:46.449Z,100717.75
2023-02-22T10:53:15.245Z,100718.47
2023-02-22T10:56:32.692Z,100713.16
2023-02-22T10:59:04.087Z,100702.66
2023-02-22T11:01:33.231Z,100698.91
2023-02-22T11:04:21.669Z,100693.31
2023-02-22T11:07:06.421Z,100700.53
2023-02-22T11:09:52.632Z,100705.06
2023-02-22T11:12:29.576Z,100703.75
2023-02-22T11:14:56.749Z,100704.69
2023-02-22T11:17:31.042Z,100691.41
2023-02-22T11:19:59.112Z,100689.06
2023-02-22T11:22:38.512Z,100694.53
2023-02-22T11:25:07.490Z,100686.03
2023-02-22T11:27:43.757Z,100693.34
2023-02-22T11:30:25.302Z,100688.03
2023-02-22T11:33:00.630Z,100691.97
2023-02-22T11:35:38.524Z,100686.44
2023-02-22T11:38:23.488Z,100687.59
2023-02-22T11:41:07.924Z,100686.63
2023-02-22T11:43:34.549Z,100694.16
2023-02-22T11:46:08.135Z,100681.38
2023-02-22T11:48:39.076Z,100676.25
2023-02-22T11:51:17.251Z,100673.81
2023-02-22T11:53:54.337Z,100670.88
2023-02-22T11:56:37.712Z,100671.31
2023-02-22T11:59:21.146Z,100665.59
2023-02-22T12:01:55.813Z,100666.13
2023-02-22T12:04:43.971Z,100659.94
2023-02-22T12:07:22.951Z,100661.41
2023-02-22T12:10:13.221Z,100655.09
2023-02-22T12:13:21.114Z,100655.59
2023-02-22T12:15:52.859Z,100653.47
2023-02-22T12:18:34.217Z,100657.66
2023-02-22T12:21:05.565Z,100655.75
2023-02-22T12:23:55.474Z,100651.53
2023-02-22T12:26:31.012Z,100645.38
2023-02-22T12:29:05.082Z,100646.03
2023-02-22T12:31:40.498Z,100648.50
2023-02-22T12:34:26.451Z,100644.16
2023-02-22T12:37:27.692Z,100648.09
2023-02-22T12:40:26.838Z,100647.38
2023-02-22T12:42:56.183Z,100656.03
2023-02-22T12:45:29.377Z,100648.53
2023-02-22T12:48:21.508Z,100652.13
2023-02-22T12:50:52.684Z,100656.59
2023-02-22T12:53:30.052Z,100652.25
2023-02-22T12:56:05.166Z,100649.63
2023-02-22T12:58:49.362Z,100643.44
2023-02-22T13:01:20.147Z,100643.91
2023-02-22T13:03:47.221Z,100640.66
2023-02-22T13:06:40.005Z,100637.44
2023-02-22T13:09:18.583Z,100642.28
2023-02-22T13:12:01.507Z,100640.59
2023-02-22T13:14:57.363Z,100641.88
2023-02-22T13:18:01.316Z,100639.09
2023-02-22T13:20:40.650Z,100635.31
2023-02-22T13:23:25.240Z,100632.78
2023-02-22T13:25:59.150Z,100637.78
2023-02-22T13:28:50.767Z,100634.44
2023-02-22T13:31:42.242Z,100639.63
2023-02-22T13:34:18.255Z,100637.84
2023-02-22T13:37:12.630Z,100636.25
2023-02-22T13:40:02.514Z,100632.66
2023-02-22T13:42:49.818Z,100629.09
2023-02-22T13:45:37.778Z,100629.09
2023-02-22T13:48:32.597Z,100632.41
2023-02-22T13:51:30.424Z,100630.50
2023-02-22T13:54:07.677Z,100627.16
2023-02-22T13:56:34.145Z,100641.31
2023-02-22T13:59:03.832Z,100632.63
2023-02-22T14:01:47.136Z,100625.81
2023-02-22T14:04:21.288Z,100627.81
2023-02-22T14:06:47.835Z,100621.44
2023-02-22T14:09:50.452Z,100626.56
2023-02-22T14:12:34.771Z,100628.28
2023-02-22T14:15:18.734Z,100632.81
2023-02-22T14:18:04.079Z,100627.63
2023-02-22T14:20:35.233Z,100625.47
2023-02-22T14:23:23.758Z,100635.84
2023-02-22T14:25:51.427Z,100628.81
2023-02-22T14:28:37.348Z,100630.13
2023-02-22T14:31:19.653Z,100624.22
2023-02-22T14:34:04.091Z,100615.94
2023-02-22T14:36:50.831Z,100625.75
2023-02-22T14:39:37.287Z,100622.22
2023-02-22T14:42:15.657Z,100627.63
2023-02-22T14:45:14.783Z,100622.28
2023-02-22T14:48:03.923Z,100623.47
2023-02-22T14:50:45.830Z,100623.06
2023-02-22T14:53:12.148Z,100625.63
2023-02-22T14:56:36.147Z,100621.19
2023-02-22T14:59:13.161Z,100620.59
2023-02-22T15:01:52.709Z,100620.25
2023-02-22T15:04:28.428Z,100626.34
2023-02-22T15:06:57.368Z,100622.59
2023-02-22T15:09:36.529Z,100620.00
2023-02-22T15:12:02.849Z,100619.34
2023-02-22T15:14:37.697Z,100623.78
2023-02-22T15:17:09.228Z,100630.06
2023-02-22T15:19:40.709Z,100626.59
2023-02-22T15:22:19.796Z,100625.16
2023-02-22T15:24:58.698Z,100631.28
2023-02-22T15:27:26.117Z,100633.00
2023-02-22T15:29:59.489Z,100620.00
2023-02-22T15:32:33.750Z,100634.91
2023-02-22T15:35:17.119Z,100634.41
2023-02-22T15:37:44.894Z,100631.25
2023-02-22T15:40:21.798Z,100640.66
2023-02-22T15:42:55.949Z,100638.28
2023-02-22T15:45:25.135Z,100643.38
2023-02-22T15:47:54.931Z,100643.59
2023-02-22T15:50:26.044Z,100645.69
2023-02-22T15:53:02.394Z,100645.91
2023-02-22T15:55:34.106Z,100648.56
2023-02-22T15:58:08.689Z,100644.72
2023-02-22T16:00:37.990Z,100655.34
2023-02-22T16:03:33.064Z,100653.53
2023-02-22T16:05:59.897Z,100649.44
2023-02-22T16:08:52.671Z,100650.75
2023-02-22T16:11:29.946Z,100650.56
2023-02-22T16:14:05.346Z,100666.22
2023-02-22T16:16:37.137Z,100667.47
2023-02-22T16:19:22.125Z,100665.84
2023-02-22T16:21:54.072Z,100665.28
2023-02-22T16:24:36.196Z,100662.19
2023-02-22T16:27:10.694Z,100659.16
2023-02-22T16:29:37.090Z,100669.53
2023-02-22T16:32:03.997Z,100667.09
2023-02-22T16:34:30.554Z,100675.03
2023-02-22T16:36:57.846Z,100665.06
2023-02-22T16:39:27.113Z,100671.78
2023-02-22T16:41:56.273Z,100666.50
2023-02-22T16:44:25.057Z,100667.88
2023-02-22T16:46:57.642Z,100670.50
2023-02-22T16:49:26.404Z,100668.25
2023-02-22T16:51:55.972Z,100677.81
2023-02-22T16:54:29.351Z,100674.56
2023-02-22T16:56:57.515Z,100674.94
2023-02-22T16:59:23.908Z,100678.78
2023-02-22T17:01:50.266Z,100673.69
2023-02-22T17:04:21.883Z,100681.81
2023-02-22T17:06:48.862Z,100676.72
2023-02-22T17:09:15.533Z,100675.44
2023-02-22T17:11:43.180Z,100684.63
2023-02-22T17:14:13.130Z,100681.97
2023-02-22T17:16:39.471Z,100682.75
2023-02-22T17:19:15.098Z,100687.03
2023-02-22T17:21:41.552Z,100695.91
2023-02-22T17:24:14.171Z,100693.94
2023-02-22T17:26:41.304Z,100688.81
2023-02-22T17:29:07.780Z,100690.25
2023-02-22T17:31:34.866Z,100691.66
2023-02-22T17:34:03.464Z,100694.88
2023-02-22T17:36:31.072Z,100692.84
2023-02-22T17:38:57.766Z,100702.94
2023-02-22T17:41:24.195Z,100705.97
2023-02-22T17:43:51.573Z,100712.91
2023-02-22T17:46:20.856Z,100713.47
2023-02-22T17:48:48.288Z,100717.09
2023-02-22T17:51:14.634Z,100718.31
2023-02-22T17:53:41.109Z,100711.81
2023-02-22T17:56:10.404Z,100713.84
2023-02-22T17:58:37.316Z,100720.75
2023-02-22T18:01:04.441Z,100718.09
2023-02-22T18:03:31.563Z,100717.06
2023-02-22T18:06:00.679Z,100717.22
2023-02-22T18:08:29.780Z,100712.94
2023-02-22T18:10:56.603Z,100711.28
2023-02-22T18:13:25.709Z,100724.72
2023-02-22T18:15:52.579Z,100717.59
2023-02-22T18:18:19.258Z,100720.25
2023-02-22T18:20:47.089Z,100723.09
2023-02-22T18:23:16.358Z,100723.03
2023-02-22T18:26:07.750Z,100732.97
2023-02-22T18:28:36.860Z,100729.00
2023-02-22T18:31:15.465Z,100736.94
2023-02-22T18:33:43.801Z,100736.09
2023-02-22T18:36:14.052Z,100740.38
2023-02-22T18:38:42.915Z,100742.22
2023-02-22T18:41:11.849Z,100737.75
2023-02-22T18:43:38.899Z,100739.50
2023-02-22T18:46:11.127Z,100744.38
2023-02-22T18:48:38.582Z,100739.03
2023-02-22T18:51:07.838Z,100748.09
2023-02-22T18:53:34.418Z,100749.22
2023-02-22T18:56:12.001Z,100748.59
2023-02-22T18:58:39.096Z,100743.31
2023-02-22T19:01:07.313Z,100740.59
2023-02-22T19:03:37.990Z,100740.34
2023-02-22T19:06:08.612Z,100744.56
2023-02-22T19:08:39.812Z,100736.94
2023-02-22T19:11:12.139Z,100746.31
2023-02-22T19:13:38.526Z,100747.50
2023-02-22T19:16:07.337Z,100749.06
2023-02-22T19:18:33.835Z,100745.53
2023-02-22T19:21:02.963Z,100745.72
2023-02-22T19:23:34.403Z,100744.28
2023-02-22T19:26:03.126Z,100744.56
2023-02-22T19:28:33.761Z,100743.84
2023-02-22T19:31:21.438Z,100751.50
2023-02-22T19:33:52.354Z,100755.25
2023-02-22T19:36:20.177Z,100755.97
2023-02-22T19:38:46.677Z,100755.31
2023-02-22T19:41:22.474Z,100763.31
2023-02-22T19:43:51.293Z,100766.78
2023-02-22T19:46:18.578Z,100762.34
2023-02-22T19:48:45.513Z,100760.34
2023-02-22T19:51:14.250Z,100760.44
2023-02-22T19:53:42.502Z,100763.88
2023-02-22T19:56:16.043Z,100767.53
2023-02-22T19:58:44.586Z,100765.53
2023-02-22T20:01:16.441Z,100757.16
2023-02-22T20:03:43.540Z,100769.34
2023-02-22T20:06:11.484Z,100766.06
2023-02-22T20:08:41.819Z,100772.94
2023-02-22T20:11:10.474Z,100763.16
2023-02-22T20:13:38.398Z,100764.41
2023-02-22T20:16:05.261Z,100768.06
2023-02-22T20:18:31.735Z,100764.16
2023-02-22T20:20:58.131Z,100762.31
2023-02-22T20:23:24.542Z,100774.13
2023-02-22T20:25:55.239Z,100776.41
2023-02-22T20:28:26.385Z,100769.34
2023-02-22T20:30:52.786Z,100776.41
2023-02-22T20:33:20.421Z,100782.50
2023-02-22T20:35:47.654Z,100781.22
2023-02-22T20:38:14.754Z,100778.72
2023-02-22T20:40:42.280Z,100775.00
2023-02-22T20:43:09.616Z,100782.72
2023-02-22T20:45:39.486Z,100777.00
2023-02-22T20:48:06.069Z,100774.53
2023-02-22T20:50:34.994Z,100774.91
2023-02-22T20:53:01.505Z,100772.56
2023-02-22T20:55:27.875Z,100775.84
2023-02-22T20:57:54.273Z,100774.19
2023-02-22T21:00:20.704Z,100778.63
2023-02-22T21:02:47.074Z,100780.53
2023-02-22T21:05:13.766Z,100787.06
2023-02-22T21:07:40.144Z,100782.31
2023-02-22T21:10:06.992Z,100780.34
2023-02-22T21:12:34.791Z,100777.53
2023-02-22T21:15:01.198Z,100777.06
2023-02-22T21:17:30.643Z,100783.69
2023-02-22T21:19:58.118Z,100784.50
2023-02-22T21:22:25.222Z,100783.53
2023-02-22T21:24:51.903Z,100782.06
2023-02-22T21:27:18.243Z,100781.25
2023-02-22T21:29:44.595Z,100784.41
2023-02-22T21:32:12.764Z,100781.84
2023-02-22T21:34:39.683Z,100782.03
2023-02-22T21:37:08.204Z,100791.44
2023-02-22T21:39:35.237Z,100786.75
2023-02-22T21:42:02.390Z,100775.84
2023-02-22T21:44:29.842Z,100778.75
2023-02-22T21:46:56.326Z,100775.31
2023-02-22T21:49:23.179Z,100782.72
2023-02-22T21:51:51.502Z,100780.72
2023-02-22T21:54:18.267Z,100780.72
2023-02-22T21:56:44.719Z,100785.00
2023-02-22T21:59:13.722Z,100782.81
2023-02-22T22:01:58.363Z,100785.88
2023-02-22T22:04:29.610Z,100789.53
2023-02-22T22:06:58.434Z,100784.72
2023-02-22T22:09:28.942Z,100783.38
2023-02-22T22:11:58.272Z,100784.09
2023-02-22T22:14:26.004Z,100784.59
2023-02-22T22:16:58.096Z,100789.94
2023-02-22T22:19:25.829Z,100781.06
2023-02-22T22:21:53.887Z,100775.00
2023-02-22T22:24:22.606Z,100781.75
2023-02-22T22:26:54.679Z,100781.59
2023-02-22T22:29:23.683Z,100777.50
2023-02-22T22:31:51.388Z,100777.31
2023-02-22T22:34:18.127Z,100777.66
2023-02-22T22:36:44.465Z,100775.22
2023-02-22T22:39:13.821Z,100770.06
2023-02-22T22:41:42.155Z,100778.16
2023-02-22T22:44:09.877Z,100772.69
2023-02-22T22:46:39.596Z,100772.06
2023-02-22T22:49:11.340Z,100779.31
2023-02-22T22:51:38.358Z,100776.16
2023-02-22T22:54:09.287Z,100775.00
2023-02-22T22:56:37.767Z,100775.81
2023-02-22T22:59:09.531Z,100775.00
2023-02-22T23:01:40.419Z,100774.25
2023-02-22T23:04:11.748Z,100775.84
2023-02-22T23:06:41.770Z,100775.84
2023-02-22T23:09:18.712Z,100768.50
2023-02-22T23:11:51.172Z,100773.75
2023-02-22T23:14:23.996Z,100774.47
2023-02-22T23:16:53.216Z,100769.19
2023-02-22T23:19:20.181Z,100773.00
2023-02-22T23:21:48.344Z,100772.34
2023-02-22T23:24:16.485Z,100774.00
2023-02-22T23:26:50.390Z,100772.34
2023-02-22T23:29:19.822Z,100765.28
2023-02-22T23:31:48.331Z,100772.34
2023-02-22T23:34:17.008Z,100778.13
2023-02-22T23:36:46.712Z,100782.88
2023-02-22T23:39:15.117Z,100771.13
2023-02-22T23:41:42.414Z,100778.13
2023-02-22T23:44:17.370Z,100783.19
2023-02-22T23:46:47.500Z,100775.31
2023-02-22T23:49:19.872Z,100785.38
2023-02-22T23:51:47.010Z,100783.72
2023-02-22T23:54:19.080Z,100783.38
2023-02-22T23:56:58.607Z,100784.69
2023-02-22T23:59:26.851Z,100779.94
